首页
METAR-TAF:

METAR-TAF

机场 :

Brownwood, 得克萨斯州, 美国

纬度: 31-48N, 经度: 098-57W, 海拔: 422米

当前天气观测

该预报发布于23分钟前的22:35 UTC
风速16节,风向东南
温度 27°C
湿度 62%
气压 1011 hPa
能見度: 14.5公里
天空无云

METAR: KBWD 172235Z AUTO 14016KT 9SM CLR 27/19 A2984 RMK AO1

时间: 17:58 (22:58 UTC)


TAF: 丢失

超过4000个机场的气象观测和天气预报(METAR&TAF报告)。

可查询的气象台以黄色和红色小点在地图上表示。

将鼠标移到小点上方,可查看气象台名称。

然后点击查看天气观测和预报。

如需切换地图:点击带黑十字的绿色按钮放大地图;点击带横线的绿色按钮缩小地图;或者点击绿色箭头查看邻近地区的地图。


METAR-TAF: